sensor_id;sensor_type;location;lat;lon;timestamp;P1;durP1;ratioP1;P2;durP2;ratioP2
30080;SDS011;16902;50.816;12.828;2022-08-07T00:01:00;5.90;;;5.38;;
30080;SDS011;16902;50.816;12.828;2022-08-07T00:06:22;3.58;;;3.30;;
30080;SDS011;16902;50.816;12.828;2022-08-07T00:11:34;3.42;;;2.63;;
30080;SDS011;16902;50.816;12.828;2022-08-07T00:16:48;9.02;;;7.13;;
30080;SDS011;16902;50.816;12.828;2022-08-07T00:21:50;5.78;;;5.18;;
30080;SDS011;16902;50.816;12.828;2022-08-07T00:26:57;4.30;;;3.90;;
30080;SDS011;16902;50.816;12.828;2022-08-07T00:32:09;3.38;;;3.08;;
30080;SDS011;16902;50.816;12.828;2022-08-07T00:37:17;4.80;;;4.30;;
30080;SDS011;16902;50.816;12.828;2022-08-07T00:42:23;3.10;;;2.80;;
30080;SDS011;16902;50.816;12.828;2022-08-07T00:47:29;6.25;;;5.32;;
30080;SDS011;16902;50.816;12.828;2022-08-07T00:52:52;8.10;;;7.10;;
30080;SDS011;16902;50.816;12.828;2022-08-07T00:57:54;10.00;;;6.28;;
30080;SDS011;16902;50.816;12.828;2022-08-07T01:02:56;3.88;;;3.58;;
30080;SDS011;16902;50.816;12.828;2022-08-07T01:07:58;3.70;;;3.30;;
30080;SDS011;16902;50.816;12.828;2022-08-07T01:13:00;3.20;;;2.90;;
30080;SDS011;16902;50.816;12.828;2022-08-07T01:18:04;3.08;;;2.75;;
30080;SDS011;16902;50.816;12.828;2022-08-07T01:23:11;2.85;;;2.65;;
30080;SDS011;16902;50.816;12.828;2022-08-07T01:28:15;4.43;;;2.63;;
30080;SDS011;16902;50.816;12.828;2022-08-07T01:33:20;2.80;;;2.60;;
30080;SDS011;16902;50.816;12.828;2022-08-07T01:38:31;3.92;;;2.83;;
30080;SDS011;16902;50.816;12.828;2022-08-07T01:43:44;2.88;;;2.50;;
30080;SDS011;16902;50.816;12.828;2022-08-07T01:48:48;3.10;;;2.53;;
30080;SDS011;16902;50.816;12.828;2022-08-07T01:53:55;3.22;;;2.92;;
30080;SDS011;16902;50.816;12.828;2022-08-07T01:59:41;4.22;;;2.90;;
30080;SDS011;16902;50.816;12.828;2022-08-07T02:05:16;3.40;;;2.75;;
30080;SDS011;16902;50.816;12.828;2022-08-07T02:10:47;2.67;;;2.47;;
30080;SDS011;16902;50.816;12.828;2022-08-07T02:16:00;3.28;;;2.90;;
30080;SDS011;16902;50.816;12.828;2022-08-07T02:21:08;4.10;;;3.08;;
30080;SDS011;16902;50.816;12.828;2022-08-07T02:26:16;3.35;;;2.80;;
30080;SDS011;16902;50.816;12.828;2022-08-07T02:31:37;3.20;;;2.90;;
30080;SDS011;16902;50.816;12.828;2022-08-07T02:36:41;5.70;;;3.10;;
30080;SDS011;16902;50.816;12.828;2022-08-07T02:41:49;3.08;;;2.40;;
30080;SDS011;16902;50.816;12.828;2022-08-07T02:46:58;3.88;;;2.65;;
30080;SDS011;16902;50.816;12.828;2022-08-07T02:52:04;3.60;;;2.65;;
30080;SDS011;16902;50.816;12.828;2022-08-07T02:57:14;3.78;;;2.45;;
30080;SDS011;16902;50.816;12.828;2022-08-07T03:02:22;2.67;;;2.30;;
30080;SDS011;16902;50.816;12.828;2022-08-07T03:07:27;3.58;;;2.53;;
30080;SDS011;16902;50.816;12.828;2022-08-07T03:12:50;3.22;;;2.92;;
30080;SDS011;16902;50.816;12.828;2022-08-07T03:17:56;2.80;;;2.60;;
30080;SDS011;16902;50.816;12.828;2022-08-07T03:23:00;3.40;;;2.55;;
30080;SDS011;16902;50.816;12.828;2022-08-07T03:28:06;3.13;;;2.83;;
30080;SDS011;16902;50.816;12.828;2022-08-07T03:33:33;2.92;;;2.70;;
30080;SDS011;16902;50.816;12.828;2022-08-07T03:38:43;2.38;;;2.22;;
30080;SDS011;16902;50.816;12.828;2022-08-07T03:43:48;2.90;;;2.67;;
30080;SDS011;16902;50.816;12.828;2022-08-07T03:49:02;2.50;;;2.30;;
30080;SDS011;16902;50.816;12.828;2022-08-07T03:54:12;2.53;;;2.33;;
30080;SDS011;16902;50.816;12.828;2022-08-07T03:59:38;2.45;;;2.10;;
30080;SDS011;16902;50.816;12.828;2022-08-07T04:05:02;2.50;;;2.30;;
30080;SDS011;16902;50.816;12.828;2022-08-07T04:10:08;1.92;;;1.83;;
30080;SDS011;16902;50.816;12.828;2022-08-07T04:15:21;2.08;;;1.90;;
30080;SDS011;16902;50.816;12.828;2022-08-07T04:20:25;3.25;;;2.63;;
30080;SDS011;16902;50.816;12.828;2022-08-07T04:25:28;3.20;;;2.60;;
30080;SDS011;16902;50.816;12.828;2022-08-07T04:30:40;2.20;;;2.10;;
30080;SDS011;16902;50.816;12.828;2022-08-07T04:36:03;2.40;;;2.20;;
30080;SDS011;16902;50.816;12.828;2022-08-07T04:41:07;4.40;;;2.35;;
30080;SDS011;16902;50.816;12.828;2022-08-07T05:02:53;2.83;;;2.50;;
30080;SDS011;16902;50.816;12.828;2022-08-07T05:19:48;2.75;;;2.55;;
30080;SDS011;16902;50.816;12.828;2022-08-07T05:24:55;3.33;;;3.03;;
30080;SDS011;16902;50.816;12.828;2022-08-07T05:30:01;4.13;;;2.63;;
30080;SDS011;16902;50.816;12.828;2022-08-07T05:35:04;3.72;;;2.90;;
30080;SDS011;16902;50.816;12.828;2022-08-07T05:40:09;3.85;;;3.55;;
30080;SDS011;16902;50.816;12.828;2022-08-07T05:45:20;3.70;;;3.40;;
30080;SDS011;16902;50.816;12.828;2022-08-07T05:50:45;3.17;;;2.85;;
30080;SDS011;16902;50.816;12.828;2022-08-07T05:55:53;4.93;;;3.25;;
30080;SDS011;16902;50.816;12.828;2022-08-07T06:01:09;3.58;;;3.05;;
30080;SDS011;16902;50.816;12.828;2022-08-07T06:06:16;3.58;;;2.58;;
30080;SDS011;16902;50.816;12.828;2022-08-07T06:11:23;2.95;;;2.63;;
30080;SDS011;16902;50.816;12.828;2022-08-07T06:16:26;3.72;;;2.35;;
30080;SDS011;16902;50.816;12.828;2022-08-07T06:21:34;2.15;;;1.95;;
30080;SDS011;16902;50.816;12.828;2022-08-07T06:26:57;2.67;;;1.88;;
30080;SDS011;16902;50.816;12.828;2022-08-07T06:32:04;1.88;;;1.77;;
30080;SDS011;16902;50.816;12.828;2022-08-07T06:37:08;1.98;;;1.88;;
30080;SDS011;16902;50.816;12.828;2022-08-07T06:42:23;1.80;;;1.70;;
30080;SDS011;16902;50.816;12.828;2022-08-07T06:47:56;1.77;;;1.67;;
30080;SDS011;16902;50.816;12.828;2022-08-07T06:53:21;2.33;;;2.10;;
30080;SDS011;16902;50.816;12.828;2022-08-07T06:58:48;2.47;;;1.95;;
30080;SDS011;16902;50.816;12.828;2022-08-07T07:04:16;2.00;;;1.70;;
30080;SDS011;16902;50.816;12.828;2022-08-07T07:09:33;1.35;;;1.25;;
30080;SDS011;16902;50.816;12.828;2022-08-07T07:20:05;1.60;;;1.50;;
30080;SDS011;16902;50.816;12.828;2022-08-07T07:25:13;2.88;;;1.40;;
30080;SDS011;16902;50.816;12.828;2022-08-07T07:30:41;2.35;;;1.60;;
30080;SDS011;16902;50.816;12.828;2022-08-07T07:35:47;2.67;;;1.50;;
30080;SDS011;16902;50.816;12.828;2022-08-07T07:41:11;1.70;;;1.35;;
30080;SDS011;16902;50.816;12.828;2022-08-07T07:46:16;1.48;;;1.38;;
30080;SDS011;16902;50.816;12.828;2022-08-07T07:51:39;1.27;;;1.10;;
30080;SDS011;16902;50.816;12.828;2022-08-07T07:56:58;2.95;;;1.23;;
30080;SDS011;16902;50.816;12.828;2022-08-07T08:02:03;2.72;;;1.00;;
30080;SDS011;16902;50.816;12.828;2022-08-07T08:07:12;0.90;;;0.90;;
30080;SDS011;16902;50.816;12.828;2022-08-07T08:12:20;1.30;;;1.00;;
30080;SDS011;16902;50.816;12.828;2022-08-07T08:17:42;2.38;;;1.20;;
30080;SDS011;16902;50.816;12.828;2022-08-07T08:22:59;1.95;;;1.25;;
30080;SDS011;16902;50.816;12.828;2022-08-07T08:28:21;1.13;;;1.02;;
30080;SDS011;16902;50.816;12.828;2022-08-07T08:33:38;1.92;;;1.20;;
30080;SDS011;16902;50.816;12.828;2022-08-07T08:38:49;2.20;;;0.90;;
30080;SDS011;16902;50.816;12.828;2022-08-07T08:55:29;1.10;;;1.02;;
30080;SDS011;16902;50.816;12.828;2022-08-07T09:00:56;1.83;;;0.98;;
30080;SDS011;16902;50.816;12.828;2022-08-07T09:11:57;1.23;;;1.00;;
30080;SDS011;16902;50.816;12.828;2022-08-07T09:23:22;1.02;;;0.98;;
30080;SDS011;16902;50.816;12.828;2022-08-07T09:28:54;2.67;;;0.95;;
30080;SDS011;16902;50.816;12.828;2022-08-07T09:34:24;0.80;;;0.70;;
30080;SDS011;16902;50.816;12.828;2022-08-07T09:39:43;1.55;;;1.00;;
30080;SDS011;16902;50.816;12.828;2022-08-07T10:13:04;1.23;;;0.90;;
30080;SDS011;16902;50.816;12.828;2022-08-07T10:18:56;1.50;;;0.80;;
30080;SDS011;16902;50.816;12.828;2022-08-07T10:24:24;2.05;;;0.82;;
30080;SDS011;16902;50.816;12.828;2022-08-07T10:40:24;1.42;;;0.90;;
30080;SDS011;16902;50.816;12.828;2022-08-07T10:45:36;1.95;;;0.90;;
30080;SDS011;16902;50.816;12.828;2022-08-07T10:50:59;2.42;;;0.90;;
30080;SDS011;16902;50.816;12.828;2022-08-07T10:56:30;0.90;;;0.82;;
30080;SDS011;16902;50.816;12.828;2022-08-07T11:01:48;1.63;;;1.10;;
30080;SDS011;16902;50.816;12.828;2022-08-07T11:13:19;1.00;;;1.00;;
30080;SDS011;16902;50.816;12.828;2022-08-07T11:18:49;0.85;;;0.80;;
30080;SDS011;16902;50.816;12.828;2022-08-07T11:24:02;0.70;;;0.70;;
30080;SDS011;16902;50.816;12.828;2022-08-07T11:29:17;0.60;;;0.60;;
30080;SDS011;16902;50.816;12.828;2022-08-07T11:34:45;0.63;;;0.60;;
30080;SDS011;16902;50.816;12.828;2022-08-07T12:07:59;2.42;;;0.60;;
30080;SDS011;16902;50.816;12.828;2022-08-07T12:13:17;0.60;;;0.43;;
30080;SDS011;16902;50.816;12.828;2022-08-07T12:24:07;1.17;;;0.50;;
30080;SDS011;16902;50.816;12.828;2022-08-07T12:34:52;0.95;;;0.68;;
30080;SDS011;16902;50.816;12.828;2022-08-07T12:39:57;1.23;;;0.50;;
30080;SDS011;16902;50.816;12.828;2022-08-07T12:45:11;1.48;;;0.75;;
30080;SDS011;16902;50.816;12.828;2022-08-07T12:51:07;2.05;;;0.43;;
30080;SDS011;16902;50.816;12.828;2022-08-07T13:06:58;0.50;;;0.50;;
30080;SDS011;16902;50.816;12.828;2022-08-07T13:22:23;2.03;;;0.65;;
30080;SDS011;16902;50.816;12.828;2022-08-07T13:27:36;0.80;;;0.60;;
30080;SDS011;16902;50.816;12.828;2022-08-07T13:39:09;1.33;;;0.40;;
30080;SDS011;16902;50.816;12.828;2022-08-07T13:44:54;0.50;;;0.50;;
30080;SDS011;16902;50.816;12.828;2022-08-07T13:50:19;0.65;;;0.47;;
30080;SDS011;16902;50.816;12.828;2022-08-07T13:55:38;0.22;;;0.22;;
30080;SDS011;16902;50.816;12.828;2022-08-07T14:00:54;2.40;;;0.60;;
30080;SDS011;16902;50.816;12.828;2022-08-07T14:05:58;0.60;;;0.50;;
30080;SDS011;16902;50.816;12.828;2022-08-07T14:11:03;1.55;;;0.50;;
30080;SDS011;16902;50.816;12.828;2022-08-07T14:16:17;0.55;;;0.50;;
30080;SDS011;16902;50.816;12.828;2022-08-07T14:21:32;0.50;;;0.50;;
30080;SDS011;16902;50.816;12.828;2022-08-07T14:27:04;0.40;;;0.40;;
30080;SDS011;16902;50.816;12.828;2022-08-07T14:32:28;0.40;;;0.40;;
30080;SDS011;16902;50.816;12.828;2022-08-07T14:37:33;0.88;;;0.60;;
30080;SDS011;16902;50.816;12.828;2022-08-07T14:42:40;0.60;;;0.60;;
30080;SDS011;16902;50.816;12.828;2022-08-07T14:48:02;0.60;;;0.47;;
30080;SDS011;16902;50.816;12.828;2022-08-07T14:53:07;1.85;;;0.60;;
30080;SDS011;16902;50.816;12.828;2022-08-07T14:58:15;2.15;;;0.55;;
30080;SDS011;16902;50.816;12.828;2022-08-07T15:03:25;0.70;;;0.60;;
30080;SDS011;16902;50.816;12.828;2022-08-07T15:08:50;0.95;;;0.57;;
30080;SDS011;16902;50.816;12.828;2022-08-07T15:13:56;0.52;;;0.52;;
30080;SDS011;16902;50.816;12.828;2022-08-07T15:19:12;1.02;;;0.55;;
30080;SDS011;16902;50.816;12.828;2022-08-07T15:24:20;1.45;;;0.60;;
30080;SDS011;16902;50.816;12.828;2022-08-07T15:29:47;1.38;;;0.73;;
30080;SDS011;16902;50.816;12.828;2022-08-07T15:35:20;1.95;;;0.90;;
30080;SDS011;16902;50.816;12.828;2022-08-07T15:40:45;1.08;;;0.60;;
30080;SDS011;16902;50.816;12.828;2022-08-07T15:46:19;1.05;;;0.82;;
30080;SDS011;16902;50.816;12.828;2022-08-07T15:51:44;0.80;;;0.80;;
30080;SDS011;16902;50.816;12.828;2022-08-07T15:56:58;3.90;;;0.82;;
30080;SDS011;16902;50.816;12.828;2022-08-07T16:02:01;0.93;;;0.90;;
30080;SDS011;16902;50.816;12.828;2022-08-07T16:07:06;1.45;;;1.15;;
30080;SDS011;16902;50.816;12.828;2022-08-07T16:23:55;0.90;;;0.90;;
30080;SDS011;16902;50.816;12.828;2022-08-07T16:57:12;1.20;;;1.05;;
30080;SDS011;16902;50.816;12.828;2022-08-07T17:08:51;1.20;;;1.20;;
30080;SDS011;16902;50.816;12.828;2022-08-07T17:14:15;1.20;;;1.10;;
30080;SDS011;16902;50.816;12.828;2022-08-07T17:19:44;1.05;;;0.95;;
30080;SDS011;16902;50.816;12.828;2022-08-07T17:30:55;1.25;;;1.02;;
30080;SDS011;16902;50.816;12.828;2022-08-07T17:36:19;1.60;;;0.93;;
30080;SDS011;16902;50.816;12.828;2022-08-07T17:41:36;1.38;;;0.93;;
30080;SDS011;16902;50.816;12.828;2022-08-07T17:52:10;3.22;;;1.10;;
30080;SDS011;16902;50.816;12.828;2022-08-07T18:18:46;1.98;;;1.20;;
30080;SDS011;16902;50.816;12.828;2022-08-07T18:29:48;2.10;;;1.17;;
30080;SDS011;16902;50.816;12.828;2022-08-07T18:52:02;1.23;;;1.10;;
30080;SDS011;16902;50.816;12.828;2022-08-07T19:08:33;2.03;;;1.02;;
30080;SDS011;16902;50.816;12.828;2022-08-07T19:19:40;1.75;;;1.20;;
30080;SDS011;16902;50.816;12.828;2022-08-07T19:24:53;1.42;;;1.30;;
30080;SDS011;16902;50.816;12.828;2022-08-07T19:29:56;2.60;;;1.38;;
30080;SDS011;16902;50.816;12.828;2022-08-07T19:35:22;2.08;;;1.60;;
30080;SDS011;16902;50.816;12.828;2022-08-07T19:40:27;2.25;;;1.60;;
30080;SDS011;16902;50.816;12.828;2022-08-07T19:45:38;1.98;;;1.80;;
30080;SDS011;16902;50.816;12.828;2022-08-07T19:51:02;1.50;;;1.40;;
30080;SDS011;16902;50.816;12.828;2022-08-07T19:56:27;1.67;;;1.55;;
30080;SDS011;16902;50.816;12.828;2022-08-07T20:01:54;1.60;;;1.50;;
30080;SDS011;16902;50.816;12.828;2022-08-07T20:06:58;1.75;;;1.60;;
30080;SDS011;16902;50.816;12.828;2022-08-07T20:12:00;1.90;;;1.70;;
30080;SDS011;16902;50.816;12.828;2022-08-07T20:17:22;1.83;;;1.70;;
30080;SDS011;16902;50.816;12.828;2022-08-07T20:22:28;4.15;;;1.90;;
30080;SDS011;16902;50.816;12.828;2022-08-07T20:27:35;2.20;;;1.80;;
30080;SDS011;16902;50.816;12.828;2022-08-07T20:32:48;1.67;;;1.48;;
30080;SDS011;16902;50.816;12.828;2022-08-07T20:37:55;1.75;;;1.65;;
30080;SDS011;16902;50.816;12.828;2022-08-07T20:43:01;1.80;;;1.70;;
30080;SDS011;16902;50.816;12.828;2022-08-07T20:48:23;5.25;;;2.17;;
30080;SDS011;16902;50.816;12.828;2022-08-07T20:53:31;1.80;;;1.70;;
30080;SDS011;16902;50.816;12.828;2022-08-07T20:58:59;2.88;;;1.80;;
30080;SDS011;16902;50.816;12.828;2022-08-07T21:04:05;3.35;;;1.55;;
30080;SDS011;16902;50.816;12.828;2022-08-07T21:09:28;3.20;;;1.80;;
30080;SDS011;16902;50.816;12.828;2022-08-07T21:14:53;2.17;;;1.80;;
30080;SDS011;16902;50.816;12.828;2022-08-07T21:19:57;3.47;;;1.98;;
30080;SDS011;16902;50.816;12.828;2022-08-07T21:25:16;1.90;;;1.80;;
30080;SDS011;16902;50.816;12.828;2022-08-07T21:30:25;2.90;;;2.00;;
30080;SDS011;16902;50.816;12.828;2022-08-07T21:41:41;2.08;;;1.90;;
30080;SDS011;16902;50.816;12.828;2022-08-07T21:47:03;2.60;;;2.10;;
30080;SDS011;16902;50.816;12.828;2022-08-07T21:52:30;2.05;;;1.92;;
30080;SDS011;16902;50.816;12.828;2022-08-07T21:57:44;2.42;;;2.22;;
30080;SDS011;16902;50.816;12.828;2022-08-07T22:08:41;5.53;;;2.10;;
30080;SDS011;16902;50.816;12.828;2022-08-07T22:13:50;2.40;;;2.20;;
30080;SDS011;16902;50.816;12.828;2022-08-07T22:18:59;4.95;;;2.00;;
30080;SDS011;16902;50.816;12.828;2022-08-07T22:24:36;2.00;;;1.77;;
30080;SDS011;16902;50.816;12.828;2022-08-07T22:35:17;2.13;;;1.92;;
30080;SDS011;16902;50.816;12.828;2022-08-07T23:40:04;2.67;;;2.25;;
30080;SDS011;16902;50.816;12.828;2022-08-07T23:51:21;2.50;;;2.30;;
30080;SDS011;16902;50.816;12.828;2022-08-07T23:57:00;2.75;;;2.50;;
